Time;durP1;ratioP1;P1;durP2;ratioP2;P2;SDS_P1;SDS_P2;PMS_P1;PMS_P2;Temp;Humidity;BMP_temperature;BMP_pressure;BME280_temperature;BME280_humidity;BME280_pressure;Samples;Min_cycle;Max_cycle;Signal;HPM_P1;HPM_P2
2022/11/01 00:02:13;;;;;;;17.47;8.37;;;14.60;99.90;;;;;;5046194;28;20616;-71
2022/11/01 00:04:41;;;;;;;18.37;9.33;;;14.60;99.90;;;;;;5046822;28;20657;-71
2022/11/01 00:07:08;;;;;;;14.90;8.20;;;14.60;99.90;;;;;;5028831;28;20227;-71
2022/11/01 00:09:35;;;;;;;13.97;8.10;;;14.70;99.90;;;;;;5045400;28;20193;-71
2022/11/01 00:12:02;;;;;;;15.23;7.73;;;14.70;99.90;;;;;;5045019;28;20237;-70
2022/11/01 00:14:29;;;;;;;15.30;8.70;;;14.80;99.90;;;;;;5046018;28;20665;-71
2022/11/01 00:17:01;;;;;;;15.63;9.40;;;14.70;99.90;;;;;;5042103;28;20329;-70
2022/11/01 00:19:28;;;;;;;17.80;9.23;;;14.80;99.90;;;;;;5049740;28;20278;-71
2022/11/01 00:21:58;;;;;;;16.13;8.60;;;14.70;99.90;;;;;;5043406;28;20214;-72
2022/11/01 00:24:25;;;;;;;12.13;8.17;;;14.70;99.90;;;;;;5048821;28;20810;-71
2022/11/01 00:26:52;;;;;;;13.33;7.90;;;14.80;99.90;;;;;;5045659;28;20654;-70
2022/11/01 00:29:19;;;;;;;16.83;8.60;;;14.80;99.90;;;;;;5044611;28;20963;-71
2022/11/01 00:31:46;;;;;;;17.53;8.93;;;14.80;99.90;;;;;;5032088;28;20201;-71
2022/11/01 00:34:14;;;;;;;14.13;7.17;;;14.90;99.90;;;;;;5046571;28;20832;-71
2022/11/01 00:36:41;;;;;;;16.37;8.27;;;14.90;99.90;;;;;;5024947;28;20256;-70
2022/11/01 00:39:12;;;;;;;18.00;8.27;;;14.90;99.90;;;;;;5033476;28;20216;-72
2022/11/01 00:41:40;;;;;;;15.77;8.33;;;14.90;99.90;;;;;;5047215;28;20258;-70
2022/11/01 00:44:07;;;;;;;17.00;8.60;;;15.00;99.90;;;;;;5045833;28;20461;-70
2022/11/01 00:46:34;;;;;;;19.27;8.23;;;15.00;99.90;;;;;;5045050;28;20218;-72
2022/11/01 00:49:02;;;;;;;22.77;8.70;;;15.00;99.90;;;;;;5024331;28;20281;-71
2022/11/01 00:51:28;;;;;;;12.95;7.95;;;15.00;99.90;;;;;;5052487;28;20303;-71
2022/11/01 00:53:55;;;;;;;15.00;8.67;;;15.00;99.90;;;;;;5045219;28;20244;-70
2022/11/01 00:56:22;;;;;;;16.20;8.70;;;15.00;99.90;;;;;;5049445;28;20224;-70
2022/11/01 00:58:49;;;;;;;17.30;8.20;;;15.00;99.90;;;;;;5044378;28;20296;-71
2022/11/01 01:01:15;;;;;;;15.57;8.00;;;15.00;99.90;;;;;;5043407;28;20213;-71
2022/11/01 01:03:42;;;;;;;13.43;8.83;;;15.00;99.90;;;;;;5045817;28;20204;-71
2022/11/01 01:06:09;;;;;;;12.03;8.40;;;15.00;99.90;;;;;;5039725;28;20228;-70
2022/11/01 01:08:38;;;;;;;13.77;8.20;;;15.10;99.90;;;;;;5046212;28;20201;-69
2022/11/01 01:11:05;;;;;;;16.73;8.80;;;15.10;99.90;;;;;;5030084;28;20327;-71
2022/11/01 01:13:32;;;;;;;14.93;8.27;;;15.10;99.90;;;;;;5048126;28;20646;-71
2022/11/01 01:15:59;;;;;;;19.47;8.73;;;15.10;99.90;;;;;;5031340;28;20228;-71
2022/11/01 01:18:27;;;;;;;17.03;8.80;;;15.10;99.90;;;;;;5047059;28;20298;-71
2022/11/01 01:21:01;;;;;;;16.90;8.13;;;15.10;99.90;;;;;;5032315;28;20239;-71
2022/11/01 01:23:28;;;;;;;17.93;8.20;;;15.10;99.90;;;;;;5044385;28;20632;-70
2022/11/01 01:25:54;;;;;;;15.30;8.07;;;15.10;99.90;;;;;;5046065;28;20239;-71
2022/11/01 01:28:21;;;;;;;16.77;8.02;;;15.10;99.90;;;;;;5042374;28;20221;-71
2022/11/01 01:30:48;;;;;;;15.03;8.73;;;15.20;99.90;;;;;;5032097;28;20631;-71
2022/11/01 01:33:15;;;;;;;16.33;7.40;;;15.20;99.90;;;;;;5048446;28;20200;-72
2022/11/01 01:35:42;;;;;;;13.97;7.60;;;15.20;99.90;;;;;;5030784;28;20637;-70
2022/11/01 01:38:08;;;;;;;17.98;7.63;;;15.30;99.90;;;;;;5044725;28;20241;-69
2022/11/01 01:40:35;;;;;;;17.38;8.55;;;15.20;99.90;;;;;;5045324;28;20292;-70
2022/11/01 01:43:02;;;;;;;13.73;7.50;;;15.30;99.90;;;;;;5049458;28;20643;-71
2022/11/01 01:45:35;;;;;;;12.87;8.17;;;15.30;99.90;;;;;;5029957;28;21034;-70
2022/11/01 01:48:11;;;;;;;15.03;8.07;;;15.30;99.90;;;;;;5040993;28;20670;-71
2022/11/01 01:50:57;;;;;;;13.67;8.07;;;15.30;99.90;;;;;;5047561;28;20207;-70
2022/11/01 01:53:39;;;;;;;14.40;9.40;;;15.30;99.90;;;;;;5048388;28;20201;-69
2022/11/01 01:56:15;;;;;;;15.73;9.00;;;15.30;99.90;;;;;;5045324;28;20241;-70
2022/11/01 01:59:06;;;;;;;20.43;8.63;;;15.20;99.90;;;;;;5039542;28;20297;-69
2022/11/01 02:01:37;;;;;;;12.80;7.80;;;15.20;99.90;;;;;;5048248;28;20209;-70
2022/11/01 02:04:14;;;;;;;15.10;8.70;;;15.30;99.90;;;;;;5042935;28;20280;-69
2022/11/01 02:06:41;;;;;;;13.73;8.30;;;15.20;99.90;;;;;;5026256;28;20235;-70
2022/11/01 02:09:09;;;;;;;14.63;8.20;;;15.20;99.90;;;;;;5042472;28;20289;-70
2022/11/01 02:11:36;;;;;;;13.90;7.93;;;15.20;99.90;;;;;;5046681;28;20249;-69
2022/11/01 02:14:02;;;;;;;15.23;8.67;;;15.20;99.90;;;;;;5043432;28;20727;-70
2022/11/01 02:16:48;;;;;;;16.13;7.77;;;15.30;99.90;;;;;;5049123;28;20323;-69
2022/11/01 02:19:39;;;;;;;18.98;7.88;;;15.30;99.90;;;;;;5043500;28;20292;-70
2022/11/01 02:22:28;;;;;;;16.90;9.00;;;15.30;99.90;;;;;;5047910;28;20271;-71
2022/11/01 02:25:19;;;;;;;11.20;6.85;;;15.40;99.90;;;;;;5046479;28;20299;-70
2022/11/01 02:28:07;;;;;;;15.40;7.23;;;15.40;99.90;;;;;;5044653;28;20539;-70
2022/11/01 02:30:45;;;;;;;14.50;6.83;;;15.30;99.90;;;;;;5041673;28;20376;-71
2022/11/01 02:33:34;;;;;;;18.13;7.43;;;15.30;99.90;;;;;;5048864;28;20242;-70
2022/11/01 02:36:15;;;;;;;11.63;6.60;;;15.30;99.90;;;;;;5047217;28;20318;-70
2022/11/01 02:38:51;;;;;;;14.17;6.50;;;15.40;99.90;;;;;;5044291;28;20215;-69
2022/11/01 02:41:23;;;;;;;14.37;7.23;;;15.50;99.90;;;;;;5040022;28;20211;-71
2022/11/01 02:44:03;;;;;;;16.67;7.50;;;15.40;99.90;;;;;;5044004;28;20197;-70
2022/11/01 02:49:40;;;;;;;16.33;6.53;;;15.40;99.90;;;;;;4984833;28;20727;-70
2022/11/01 02:52:11;;;;;;;12.20;7.13;;;15.40;99.90;;;;;;5036281;28;20209;-71
2022/11/01 02:54:48;;;;;;;16.75;6.95;;;15.40;99.90;;;;;;5046480;28;20276;-70
2022/11/01 02:57:35;;;;;;;12.43;6.67;;;15.40;99.90;;;;;;5038833;28;20241;-71
2022/11/01 03:00:26;;;;;;;13.17;6.73;;;15.50;99.90;;;;;;5044304;28;20296;-70
2022/11/01 03:03:14;;;;;;;12.77;6.57;;;15.50;99.90;;;;;;5045369;28;20280;-70
2022/11/01 03:05:59;;;;;;;13.88;6.78;;;15.60;99.90;;;;;;5036591;28;20210;-70
2022/11/01 03:08:40;;;;;;;11.82;7.22;;;15.70;99.90;;;;;;5042377;28;20220;-70
2022/11/01 03:11:15;;;;;;;10.60;6.72;;;15.70;99.90;;;;;;5039816;28;20296;-70
2022/11/01 03:13:58;;;;;;;12.55;6.43;;;15.80;99.90;;;;;;5041608;28;20201;-70
2022/11/01 03:16:34;;;;;;;10.38;6.15;;;15.90;99.90;;;;;;5041286;28;20264;-70
2022/11/01 03:19:23;;;;;;;14.57;6.68;;;15.90;99.90;;;;;;5045002;28;20193;-70
2022/11/01 03:22:19;;;;;;;14.23;6.82;;;15.90;99.90;;;;;;5043482;28;20229;-71
2022/11/01 03:25:04;;;;;;;13.25;6.25;;;16.00;99.90;;;;;;5042414;28;20232;-70
2022/11/01 03:27:41;;;;;;;12.82;7.78;;;16.00;99.90;;;;;;5041257;28;20323;-70
2022/11/01 03:30:12;;;;;;;10.20;5.90;;;16.00;99.90;;;;;;5043519;28;20326;-70
2022/11/01 03:32:52;;;;;;;14.10;6.18;;;16.00;99.90;;;;;;5043253;28;20593;-71
2022/11/01 03:35:24;;;;;;;13.02;6.25;;;16.00;99.90;;;;;;5041776;28;20208;-71
2022/11/01 03:37:56;;;;;;;13.23;6.68;;;16.00;99.90;;;;;;5043816;28;20335;-70
2022/11/01 03:40:25;;;;;;;11.82;6.20;;;16.00;99.90;;;;;;5028909;28;20293;-70
2022/11/01 03:42:58;;;;;;;15.80;6.53;;;16.00;99.90;;;;;;5038414;28;20317;-70
2022/11/01 03:45:26;;;;;;;10.48;5.82;;;16.10;99.90;;;;;;5033096;28;20200;-70
2022/11/01 03:47:53;;;;;;;11.63;6.50;;;16.10;99.90;;;;;;5043987;28;20284;-72
2022/11/01 03:50:21;;;;;;;11.60;6.90;;;16.10;99.90;;;;;;5043042;28;20217;-70
2022/11/01 03:52:48;;;;;;;9.40;6.22;;;16.20;99.90;;;;;;5048405;28;20225;-70
2022/11/01 03:55:17;;;;;;;11.45;5.80;;;16.20;99.90;;;;;;5031128;28;20798;-70
2022/11/01 03:57:48;;;;;;;11.68;5.60;;;16.20;99.90;;;;;;5029773;28;20248;-71
2022/11/01 04:00:20;;;;;;;10.57;6.03;;;16.20;99.90;;;;;;5043574;28;20288;-70
2022/11/01 04:02:48;;;;;;;14.55;6.38;;;16.20;99.90;;;;;;5043416;28;20223;-70
2022/11/01 04:05:17;;;;;;;10.32;5.65;;;16.20;99.90;;;;;;5037135;28;20604;-70
2022/11/01 04:07:44;;;;;;;11.75;5.45;;;16.20;99.90;;;;;;5026703;28;20217;-71
2022/11/01 04:10:11;;;;;;;11.27;5.47;;;16.10;99.90;;;;;;5044126;28;20634;-70
2022/11/01 04:12:38;;;;;;;11.98;6.22;;;16.20;99.90;;;;;;5048194;28;20237;-70
2022/11/01 04:20:52;;;;;;;9.65;5.45;;;16.30;99.90;;;;;;5043879;28;20993;-70
2022/11/01 04:23:19;;;;;;;10.45;4.97;;;16.30;99.90;;;;;;5051622;28;20211;-70
2022/11/01 04:25:46;;;;;;;11.25;6.00;;;16.40;99.90;;;;;;5043467;28;20630;-70
2022/11/01 04:28:16;;;;;;;8.98;4.53;;;16.40;99.90;;;;;;5026259;28;20586;-70
2022/11/01 04:30:43;;;;;;;7.05;4.50;;;16.50;99.90;;;;;;5049235;28;20197;-69
2022/11/01 04:33:09;;;;;;;8.60;4.40;;;16.50;99.90;;;;;;5044167;28;20668;-70
2022/11/01 04:35:39;;;;;;;6.63;4.03;;;16.50;99.90;;;;;;5047242;28;20231;-70
2022/11/01 04:38:07;;;;;;;7.25;4.07;;;16.60;99.90;;;;;;5044038;28;20208;-70
2022/11/01 04:40:34;;;;;;;6.60;4.00;;;16.60;99.90;;;;;;5047242;28;20717;-69
2022/11/01 04:43:02;;;;;;;9.48;4.53;;;16.70;99.90;;;;;;5043771;28;20220;-69
2022/11/01 04:45:28;;;;;;;8.30;3.45;;;16.60;99.90;;;;;;5047341;28;20303;-71
2022/11/01 04:48:03;;;;;;;4.15;3.17;;;16.60;99.90;;;;;;5044931;28;20346;-70
2022/11/01 04:50:31;;;;;;;5.32;2.70;;;16.60;99.90;;;;;;5048785;28;20205;-70
2022/11/01 04:52:59;;;;;;;6.53;2.25;;;16.50;99.90;;;;;;5046387;28;20219;-69
2022/11/01 04:55:27;;;;;;;6.68;2.00;;;16.50;99.90;;;;;;5044143;28;20244;-70
2022/11/01 04:57:54;;;;;;;4.13;2.95;;;16.50;99.90;;;;;;5040918;28;20205;-70
2022/11/01 05:00:21;;;;;;;3.78;1.58;;;16.40;99.90;;;;;;5045511;28;20304;-70
2022/11/01 05:02:49;;;;;;;3.10;1.38;;;16.30;99.90;;;;;;5030192;28;20740;-69
2022/11/01 05:05:16;;;;;;;2.53;1.60;;;16.20;99.90;;;;;;5042905;28;20653;-72
2022/11/01 05:07:43;;;;;;;3.25;1.40;;;16.20;99.90;;;;;;5048445;28;20324;-71
2022/11/01 05:10:11;;;;;;;2.70;1.60;;;16.20;99.90;;;;;;5043430;28;20201;-70
2022/11/01 05:12:37;;;;;;;6.55;2.08;;;16.10;99.90;;;;;;5043598;28;20200;-70
2022/11/01 05:15:05;;;;;;;5.63;1.58;;;16.10;99.90;;;;;;5044556;28;20228;-70
2022/11/01 05:17:32;;;;;;;4.13;1.73;;;16.00;99.90;;;;;;5046716;28;20289;-71
2022/11/01 05:19:58;;;;;;;5.53;1.80;;;16.00;99.90;;;;;;5041982;28;20662;-69
2022/11/01 05:22:25;;;;;;;4.05;1.70;;;15.90;99.90;;;;;;5046591;28;20225;-71
2022/11/01 05:24:52;;;;;;;4.88;1.45;;;15.90;99.90;;;;;;5026914;28;20202;-70
2022/11/01 05:27:19;;;;;;;1.60;1.20;;;15.80;99.90;;;;;;5046727;28;20566;-71
2022/11/01 05:29:46;;;;;;;2.53;1.20;;;15.70;99.90;;;;;;5042467;28;20225;-72
2022/11/01 05:32:12;;;;;;;2.45;1.25;;;15.60;99.90;;;;;;5044697;28;20205;-71
2022/11/01 05:34:39;;;;;;;3.25;1.27;;;15.60;99.90;;;;;;5046108;28;20220;-71
2022/11/01 05:37:06;;;;;;;4.37;1.87;;;15.50;99.90;;;;;;5045704;28;20584;-72
2022/11/01 05:39:33;;;;;;;4.07;1.50;;;15.50;99.90;;;;;;5046021;28;20214;-70
2022/11/01 05:41:59;;;;;;;4.70;1.38;;;15.40;99.90;;;;;;5044771;28;20693;-72
2022/11/01 05:44:28;;;;;;;5.10;1.30;;;15.40;99.90;;;;;;5043098;28;20234;-70
2022/11/01 05:46:55;;;;;;;1.73;0.95;;;15.40;99.90;;;;;;5047845;28;20584;-70
2022/11/01 05:49:23;;;;;;;3.73;1.27;;;15.40;99.90;;;;;;5041441;28;20611;-70
2022/11/01 05:51:50;;;;;;;3.17;1.27;;;15.30;99.90;;;;;;5048989;28;20221;-69
2022/11/01 05:54:16;;;;;;;4.13;1.40;;;15.30;99.90;;;;;;5049142;28;20214;-70
2022/11/01 05:56:46;;;;;;;6.18;1.50;;;15.20;99.90;;;;;;5026453;28;20293;-69
2022/11/01 05:59:13;;;;;;;4.70;1.47;;;15.20;99.90;;;;;;5036786;28;20335;-69
2022/11/01 06:01:40;;;;;;;2.83;1.50;;;15.10;99.90;;;;;;5042367;28;20235;-70
2022/11/01 06:04:07;;;;;;;4.37;1.57;;;15.10;99.90;;;;;;5045649;28;20669;-69
2022/11/01 06:06:34;;;;;;;2.10;1.17;;;15.20;99.90;;;;;;5041262;28;20227;-70
2022/11/01 06:09:01;;;;;;;1.17;1.03;;;15.00;99.90;;;;;;5044952;28;20210;-71
2022/11/01 06:11:28;;;;;;;1.83;1.08;;;15.00;99.90;;;;;;5039645;28;20649;-70
2022/11/01 06:13:56;;;;;;;2.53;1.30;;;14.90;99.90;;;;;;5030904;28;20206;-70
2022/11/01 06:16:25;;;;;;;4.13;1.33;;;14.90;99.90;;;;;;5024967;28;20237;-70
2022/11/01 06:18:52;;;;;;;3.53;1.37;;;14.90;99.90;;;;;;5024510;28;20197;-71
2022/11/01 06:21:21;;;;;;;3.23;1.40;;;14.80;99.90;;;;;;5028395;28;20225;-69
2022/11/01 06:23:55;;;;;;;2.10;0.93;;;14.80;99.90;;;;;;5045275;28;20713;-72
2022/11/01 06:26:22;;;;;;;6.30;1.53;;;14.70;99.90;;;;;;5044781;28;20202;-71
2022/11/01 06:28:49;;;;;;;1.90;1.23;;;14.70;99.90;;;;;;5043831;28;20693;-70
2022/11/01 06:31:15;;;;;;;2.77;1.20;;;14.60;99.90;;;;;;5046708;28;20312;-70
2022/11/01 06:33:42;;;;;;;3.57;1.20;;;14.60;99.90;;;;;;5044358;28;20197;-70
2022/11/01 06:36:09;;;;;;;3.83;1.20;;;14.60;99.90;;;;;;5041346;28;20308;-70
2022/11/01 06:38:36;;;;;;;3.17;1.00;;;14.60;99.90;;;;;;5048674;28;20640;-69
2022/11/01 06:41:03;;;;;;;3.77;1.60;;;14.50;99.90;;;;;;5044763;28;20658;-71
2022/11/01 06:43:29;;;;;;;4.17;1.20;;;14.50;99.90;;;;;;5043576;28;20216;-72
2022/11/01 06:45:59;;;;;;;3.50;1.10;;;14.40;99.90;;;;;;5040695;28;20628;-69
2022/11/01 06:48:27;;;;;;;4.80;1.30;;;14.40;99.90;;;;;;5045604;28;20228;-70
2022/11/01 06:50:57;;;;;;;2.93;1.20;;;14.40;99.90;;;;;;5044815;28;20297;-69
2022/11/01 06:53:24;;;;;;;6.33;1.50;;;14.40;99.90;;;;;;5029255;28;20290;-70
2022/11/01 06:55:53;;;;;;;2.90;1.17;;;14.40;99.90;;;;;;5023507;28;20697;-70
2022/11/01 06:58:20;;;;;;;7.87;1.73;;;14.40;99.90;;;;;;5043559;28;20213;-72
2022/11/01 07:00:50;;;;;;;6.67;1.73;;;14.30;99.90;;;;;;5042017;28;20990;-70
2022/11/01 07:03:18;;;;;;;5.73;1.60;;;14.30;99.90;;;;;;5043520;28;20201;-70
2022/11/01 07:05:48;;;;;;;6.30;1.63;;;14.20;99.90;;;;;;5044058;28;20558;-71
2022/11/01 07:08:16;;;;;;;6.85;1.70;;;14.20;99.90;;;;;;5040534;28;20452;-69
2022/11/01 07:10:43;;;;;;;4.93;1.97;;;14.50;99.90;;;;;;5045441;28;20217;-71
2022/11/01 07:13:12;;;;;;;9.27;1.57;;;14.40;99.90;;;;;;5024014;28;20211;-70
2022/11/01 07:15:39;;;;;;;11.47;2.73;;;14.30;99.90;;;;;;5025040;28;20322;-69
2022/11/01 07:18:07;;;;;;;9.10;2.20;;;14.30;99.90;;;;;;5041043;28;20892;-70
2022/11/01 07:20:40;;;;;;;3.83;1.40;;;14.20;99.90;;;;;;5047063;28;20650;-70
2022/11/01 07:23:15;;;;;;;9.43;1.50;;;14.20;99.90;;;;;;5048770;28;20618;-70
2022/11/01 07:25:42;;;;;;;9.50;1.77;;;14.20;99.90;;;;;;5045327;28;20292;-71
2022/11/01 07:28:09;;;;;;;8.57;1.80;;;14.20;99.90;;;;;;5047231;28;20236;-69
2022/11/01 07:30:36;;;;;;;7.47;1.53;;;14.20;99.90;;;;;;5042921;28;20198;-70
2022/11/01 07:33:03;;;;;;;5.83;1.70;;;14.30;99.90;;;;;;5045252;28;20299;-70
2022/11/01 07:35:30;;;;;;;9.27;1.70;;;14.20;99.90;;;;;;5049359;28;20296;-70
2022/11/01 07:37:59;;;;;;;7.37;2.10;;;14.20;99.90;;;;;;5045036;28;20205;-69
2022/11/01 07:40:30;;;;;;;7.40;1.83;;;14.20;99.90;;;;;;5050026;28;20201;-70
2022/11/01 07:42:59;;;;;;;10.80;2.27;;;14.30;99.90;;;;;;5048693;28;20638;-70
2022/11/01 07:45:27;;;;;;;10.77;1.97;;;14.30;99.90;;;;;;5032149;28;20299;-70
2022/11/01 07:48:01;;;;;;;9.93;1.93;;;14.30;99.90;;;;;;5048741;28;20224;-70
2022/11/01 07:50:30;;;;;;;11.73;2.20;;;14.30;99.90;;;;;;5045814;28;20201;-72
2022/11/01 07:53:26;;;;;;;8.80;2.20;;;14.30;99.90;;;;;;5030978;28;20650;-70
2022/11/01 07:55:53;;;;;;;11.03;2.30;;;14.30;99.90;;;;;;5041202;28;20296;-71
2022/11/01 07:58:20;;;;;;;10.63;2.23;;;14.30;99.90;;;;;;5043036;28;20315;-71
2022/11/01 08:00:49;;;;;;;10.10;2.17;;;14.40;99.90;;;;;;5047460;28;20649;-69
2022/11/01 08:03:18;;;;;;;11.10;2.57;;;14.30;99.90;;;;;;5044963;28;20367;-70
2022/11/01 08:05:47;;;;;;;9.93;2.40;;;14.30;99.90;;;;;;5030976;28;20262;-69
2022/11/01 08:08:14;;;;;;;9.93;2.60;;;14.30;99.90;;;;;;5043186;28;20224;-69
2022/11/01 08:10:41;;;;;;;12.87;2.40;;;14.30;99.90;;;;;;5052497;28;20201;-70
2022/11/01 08:13:16;;;;;;;9.13;2.23;;;14.30;99.90;;;;;;5045490;28;20223;-70
2022/11/01 08:15:44;;;;;;;10.97;2.10;;;14.40;99.90;;;;;;5044178;28;20705;-70
2022/11/01 08:18:11;;;;;;;8.80;2.30;;;14.40;99.90;;;;;;5045689;28;20223;-69
2022/11/01 08:20:39;;;;;;;9.40;2.27;;;14.40;99.90;;;;;;5048220;28;20209;-70
2022/11/01 08:23:06;;;;;;;10.10;2.33;;;14.50;99.90;;;;;;5046417;28;20832;-71
2022/11/01 08:25:37;;;;;;;13.27;3.63;;;14.50;99.90;;;;;;5045884;28;20631;-70
2022/11/01 08:28:07;;;;;;;7.70;2.07;;;14.60;99.90;;;;;;5047501;28;20232;-70
2022/11/01 08:30:35;;;;;;;13.33;2.70;;;14.50;99.90;;;;;;5043807;28;20233;-70
2022/11/01 08:33:03;;;;;;;12.27;2.77;;;14.60;99.90;;;;;;5047597;28;20679;-69
2022/11/01 08:35:31;;;;;;;11.67;2.80;;;14.60;99.90;;;;;;5042727;28;20225;-70
2022/11/01 08:37:58;;;;;;;7.00;2.17;;;14.60;99.90;;;;;;5045696;28;20224;-69
2022/11/01 08:40:27;;;;;;;12.23;3.00;;;14.70;99.90;;;;;;5023213;28;20217;-70
2022/11/01 08:42:54;;;;;;;14.13;2.77;;;14.80;99.90;;;;;;5050447;28;20258;-70
2022/11/01 08:45:22;;;;;;;10.10;1.93;;;14.70;99.90;;;;;;5044906;28;20241;-71
2022/11/01 08:47:49;;;;;;;13.33;2.33;;;14.70;99.90;;;;;;5030880;28;20245;-70
2022/11/01 08:50:16;;;;;;;11.20;2.40;;;14.70;99.90;;;;;;5041879;28;20546;-71
2022/11/01 08:52:43;;;;;;;12.18;2.75;;;14.80;99.90;;;;;;5050565;28;20212;-71
2022/11/01 08:55:10;;;;;;;12.50;2.40;;;14.80;99.90;;;;;;5042135;28;20551;-71
2022/11/01 08:57:37;;;;;;;10.00;2.40;;;14.80;99.90;;;;;;5045028;28;20207;-70
2022/11/01 09:00:12;;;;;;;14.75;2.63;;;14.80;99.90;;;;;;5043928;28;20215;-70
2022/11/01 09:02:39;;;;;;;13.63;2.63;;;14.90;99.90;;;;;;5045999;28;20195;-70
2022/11/01 09:05:06;;;;;;;13.23;2.28;;;14.90;99.90;;;;;;5043008;28;20209;-70
2022/11/01 09:07:36;;;;;;;15.03;2.67;;;15.00;99.90;;;;;;5045006;28;20221;-69
2022/11/01 09:10:03;;;;;;;10.93;2.67;;;15.10;99.90;;;;;;5024503;28;20229;-69
2022/11/01 09:12:30;;;;;;;11.27;2.37;;;15.00;99.90;;;;;;5048239;28;20212;-70
2022/11/01 09:14:57;;;;;;;11.13;2.80;;;15.00;99.90;;;;;;5044783;28;20248;-71
2022/11/01 09:17:24;;;;;;;12.70;3.00;;;15.00;99.90;;;;;;5047703;28;20197;-70
2022/11/01 09:19:50;;;;;;;12.57;2.87;;;15.00;99.90;;;;;;5029042;28;20201;-71
2022/11/01 09:22:17;;;;;;;9.75;2.58;;;15.00;99.90;;;;;;5048500;28;20693;-70
2022/11/01 09:24:44;;;;;;;14.35;2.63;;;14.90;99.90;;;;;;5043276;28;20288;-71
2022/11/01 09:27:11;;;;;;;10.07;2.30;;;14.90;99.90;;;;;;5026105;28;20302;-70
2022/11/01 09:29:38;;;;;;;8.52;2.25;;;14.90;99.90;;;;;;5044408;28;20229;-71
2022/11/01 09:32:07;;;;;;;11.90;2.33;;;15.00;99.90;;;;;;5047153;28;20317;-69
2022/11/01 09:34:34;;;;;;;11.57;2.42;;;15.10;99.90;;;;;;5041201;28;20209;-70
2022/11/01 09:37:01;;;;;;;8.18;2.33;;;15.10;99.90;;;;;;5044856;28;20232;-72
2022/11/01 09:39:28;;;;;;;20.33;3.85;;;15.10;99.90;;;;;;5042553;28;20212;-72
2022/11/01 09:42:05;;;;;;;17.00;3.05;;;15.20;99.90;;;;;;5050264;28;20212;-70
2022/11/01 09:44:39;;;;;;;12.27;2.60;;;15.20;99.90;;;;;;5044870;28;20219;-71
2022/11/01 09:47:13;;;;;;;15.10;3.20;;;15.20;99.90;;;;;;5041649;28;20273;-70
2022/11/01 09:49:44;;;;;;;13.13;2.45;;;15.30;99.90;;;;;;5047859;28;20688;-69
2022/11/01 09:52:24;;;;;;;16.73;2.58;;;15.20;99.90;;;;;;5046745;28;20296;-70
2022/11/01 09:54:52;;;;;;;11.30;2.72;;;15.50;99.90;;;;;;5047081;28;20299;-70
2022/11/01 09:57:34;;;;;;;12.32;2.67;;;15.50;99.90;;;;;;5026306;28;20280;-70
2022/11/01 10:00:04;;;;;;;15.93;2.72;;;15.60;99.90;;;;;;5047560;28;20610;-70
2022/11/01 10:03:16;;;;;;;14.52;2.92;;;15.60;99.90;;;;;;5040437;28;20212;-71
2022/11/01 10:05:59;;;;;;;13.32;2.75;;;15.60;99.90;;;;;;5040958;28;20829;-70
2022/11/01 10:08:32;;;;;;;11.77;2.85;;;15.60;99.90;;;;;;5042512;28;20302;-72
2022/11/01 10:11:06;;;;;;;9.60;2.35;;;15.50;99.90;;;;;;5032623;28;20205;-71
2022/11/01 10:13:49;;;;;;;12.15;2.70;;;15.60;99.90;;;;;;5041467;28;20215;-70
2022/11/01 10:16:36;;;;;;;8.52;2.42;;;15.60;99.90;;;;;;5044959;28;20338;-70
2022/11/01 10:19:04;;;;;;;11.75;3.05;;;15.60;99.90;;;;;;5026968;28;20292;-70
2022/11/01 10:21:41;;;;;;;14.77;2.85;;;15.50;99.90;;;;;;5045029;28;20706;-70
2022/11/01 10:24:21;;;;;;;12.60;2.30;;;15.50;99.90;;;;;;5043083;28;20205;-71
2022/11/01 10:26:53;;;;;;;10.88;2.30;;;15.60;99.90;;;;;;5045879;28;20612;-73
2022/11/01 10:30:06;;;;;;;9.13;2.60;;;15.60;99.90;;;;;;5040875;28;20657;-71
2022/11/01 10:32:52;;;;;;;10.80;2.53;;;15.60;99.90;;;;;;4956930;28;20324;-71
2022/11/01 10:35:24;;;;;;;13.68;2.65;;;15.60;99.90;;;;;;5040390;28;20363;-71
2022/11/01 10:38:00;;;;;;;15.38;2.78;;;15.60;99.90;;;;;;5047408;28;20480;-71
2022/11/01 10:40:54;;;;;;;11.82;2.25;;;15.70;99.90;;;;;;5040307;28;20213;-70
2022/11/01 10:43:24;;;;;;;9.43;2.88;;;15.70;99.90;;;;;;5028645;28;20205;-72
2022/11/01 10:45:54;;;;;;;16.80;3.47;;;15.80;99.90;;;;;;5044381;28;20201;-71
2022/11/01 10:48:35;;;;;;;12.43;2.47;;;15.70;99.90;;;;;;5041748;28;20244;-70
2022/11/01 10:51:05;;;;;;;13.73;2.60;;;15.80;99.90;;;;;;5039668;28;20227;-71
2022/11/01 10:53:43;;;;;;;13.38;2.67;;;15.70;99.90;;;;;;5030714;28;20255;-71
2022/11/01 10:56:19;;;;;;;19.15;2.72;;;15.70;99.90;;;;;;5050568;28;20204;-71
2022/11/01 10:59:00;;;;;;;11.98;2.40;;;15.90;99.90;;;;;;5030635;28;20205;-71
2022/11/01 11:01:33;;;;;;;10.90;3.05;;;15.90;99.90;;;;;;5048447;28;20258;-71
2022/11/01 11:04:03;;;;;;;8.57;1.95;;;15.80;99.90;;;;;;5029759;28;20634;-70
2022/11/01 11:06:30;;;;;;;9.25;2.10;;;15.80;99.90;;;;;;5031722;28;20308;-70
2022/11/01 11:08:58;;;;;;;11.68;2.60;;;15.90;99.90;;;;;;5047120;28;20324;-71
2022/11/01 11:11:37;;;;;;;18.60;2.58;;;15.90;99.90;;;;;;5039974;28;20673;-71
2022/11/01 11:14:06;;;;;;;8.20;2.40;;;15.90;99.90;;;;;;5033734;28;20262;-72
2022/11/01 11:16:43;;;;;;;11.68;2.47;;;15.90;99.90;;;;;;5044534;28;20237;-70
2022/11/01 11:19:10;;;;;;;11.63;2.60;;;15.90;99.90;;;;;;5027115;28;20309;-71
2022/11/01 11:21:38;;;;;;;8.27;2.13;;;15.90;99.90;;;;;;5032724;28;20288;-71
2022/11/01 11:24:33;;;;;;;10.18;1.90;;;15.90;99.90;;;;;;5053257;28;20271;-72
2022/11/01 11:27:03;;;;;;;10.18;2.38;;;15.90;99.90;;;;;;5047964;28;20259;-70
2022/11/01 11:29:44;;;;;;;9.75;2.00;;;16.00;99.90;;;;;;5051942;28;20235;-70
2022/11/01 11:32:21;;;;;;;14.32;3.22;;;16.00;99.90;;;;;;5029827;28;20697;-70
2022/11/01 11:35:04;;;;;;;13.43;2.25;;;16.10;99.90;;;;;;5050314;28;20262;-70
2022/11/01 11:37:33;;;;;;;12.02;2.58;;;16.10;99.90;;;;;;5048361;28;20332;-71
2022/11/01 11:40:18;;;;;;;5.85;2.03;;;16.20;99.90;;;;;;5044135;28;20231;-70
2022/11/01 11:42:47;;;;;;;9.05;2.28;;;16.20;99.90;;;;;;5047285;28;20266;-70
2022/11/01 11:45:26;;;;;;;10.18;2.22;;;16.20;99.90;;;;;;5047649;28;20661;-71
2022/11/01 11:47:55;;;;;;;10.02;2.17;;;16.30;99.90;;;;;;5040661;28;20653;-70
2022/11/01 11:50:31;;;;;;;9.02;2.13;;;16.30;99.90;;;;;;5044025;28;20210;-70
2022/11/01 11:53:05;;;;;;;11.82;2.40;;;16.40;99.90;;;;;;5051837;28;20509;-71
2022/11/01 11:55:52;;;;;;;6.05;1.85;;;16.50;99.90;;;;;;5044615;28;20209;-71
2022/11/01 11:58:39;;;;;;;10.25;2.60;;;16.50;99.90;;;;;;5043397;28;20197;-70
2022/11/01 12:01:14;;;;;;;9.18;1.95;;;16.60;99.90;;;;;;5047037;28;20267;-70
2022/11/01 12:03:52;;;;;;;13.65;2.65;;;16.60;99.90;;;;;;5026591;28;20263;-71
2022/11/01 12:06:22;;;;;;;10.18;2.22;;;16.60;99.90;;;;;;5048967;28;20225;-71
2022/11/01 12:08:59;;;;;;;8.35;2.00;;;16.60;99.90;;;;;;5025773;28;20312;-71
2022/11/01 12:11:44;;;;;;;11.18;2.05;;;16.70;99.90;;;;;;5051646;28;20257;-72
2022/11/01 12:14:21;;;;;;;12.05;2.47;;;16.60;99.90;;;;;;5032125;28;20228;-70
2022/11/01 12:16:49;;;;;;;12.65;2.35;;;16.70;99.90;;;;;;5043335;28;20258;-70
2022/11/01 12:19:30;;;;;;;9.73;2.00;;;16.70;99.90;;;;;;5045990;28;20205;-70
2022/11/01 12:22:00;;;;;;;8.65;1.73;;;16.80;99.90;;;;;;5046143;28;20252;-71
2022/11/01 12:24:35;;;;;;;9.80;2.10;;;16.90;99.90;;;;;;5044582;28;20206;-71
2022/11/01 12:27:10;;;;;;;10.95;2.30;;;16.90;99.90;;;;;;5050455;28;20841;-71
2022/11/01 12:29:49;;;;;;;8.07;2.47;;;17.00;99.90;;;;;;5024566;28;20298;-70
2022/11/01 12:32:23;;;;;;;10.05;2.08;;;17.10;99.90;;;;;;5042472;28;20231;-70
2022/11/01 12:34:52;;;;;;;11.55;1.83;;;17.10;99.90;;;;;;5026108;28;20211;-70
2022/11/01 12:37:28;;;;;;;10.98;1.88;;;17.10;99.90;;;;;;5025232;28;20224;-71
2022/11/01 12:40:17;;;;;;;11.48;2.92;;;17.20;99.90;;;;;;5050789;28;20683;-71
2022/11/01 12:42:50;;;;;;;13.55;2.40;;;17.10;99.90;;;;;;5039527;28;20201;-70
2022/11/01 12:45:52;;;;;;;8.45;1.88;;;17.10;99.90;;;;;;5029439;28;20316;-70
2022/11/01 12:48:24;;;;;;;6.28;1.90;;;17.20;99.90;;;;;;5040802;28;20287;-73
2022/11/01 12:51:09;;;;;;;9.45;1.90;;;17.10;99.90;;;;;;5043019;28;20309;-70
2022/11/01 12:53:48;;;;;;;5.68;2.20;;;17.10;99.90;;;;;;5048779;28;20251;-72
2022/11/01 12:56:16;;;;;;;9.32;1.92;;;17.10;99.90;;;;;;5027670;28;20213;-71
2022/11/01 12:58:44;;;;;;;9.57;2.33;;;17.00;99.90;;;;;;5044232;28;20655;-71
2022/11/01 13:01:37;;;;;;;12.95;3.20;;;17.00;99.90;;;;;;5043916;28;20220;-71
2022/11/01 13:04:04;;;;;;;7.72;2.15;;;17.00;99.90;;;;;;5040638;28;20214;-72
2022/11/01 13:06:58;;;;;;;11.27;2.35;;;17.00;99.90;;;;;;5049331;28;20308;-71
2022/11/01 13:09:47;;;;;;;7.93;2.10;;;17.10;99.90;;;;;;5046464;28;20673;-70
2022/11/01 13:12:22;;;;;;;11.75;1.80;;;17.00;99.90;;;;;;5043377;28;20252;-70
2022/11/01 13:14:59;;;;;;;6.82;1.70;;;17.00;99.90;;;;;;5045797;28;20669;-71